createdAt,value
2018-12-01T00:02:44.187Z,6.00
2018-12-01T00:05:46.889Z,6.00
2018-12-01T00:08:49.476Z,5.90
2018-12-01T00:11:52.639Z,5.90
2018-12-01T00:14:55.390Z,6.00
2018-12-01T00:17:58.115Z,6.00
2018-12-01T00:21:00.798Z,5.90
2018-12-01T00:24:03.917Z,5.90
2018-12-01T00:27:06.559Z,5.90
2018-12-01T00:30:16.921Z,5.80
2018-12-01T00:33:19.549Z,5.80
2018-12-01T00:36:22.180Z,5.80
2018-12-01T00:39:25.092Z,5.80
2018-12-01T00:42:27.831Z,5.80
2018-12-01T00:45:30.502Z,5.80
2018-12-01T00:48:33.250Z,5.80
2018-12-01T00:51:35.930Z,5.80
2018-12-01T00:54:38.989Z,5.80
2018-12-01T00:57:41.729Z,5.80
2018-12-01T01:00:44.769Z,5.80
2018-12-01T01:03:47.417Z,5.80
2018-12-01T01:06:50.147Z,5.80
2018-12-01T01:09:52.772Z,5.80
2018-12-01T01:12:55.426Z,5.90
2018-12-01T01:15:58.197Z,5.90
2018-12-01T01:19:00.772Z,6.00
2018-12-01T01:22:03.567Z,6.00
2018-12-01T01:25:07.570Z,6.10
2018-12-01T01:28:10.218Z,6.10
2018-12-01T01:31:12.853Z,6.10
2018-12-01T01:34:15.453Z,6.20
2018-12-01T01:40:27.240Z,6.20
2018-12-01T01:43:30.361Z,6.30
2018-12-01T01:46:33.180Z,6.30
2018-12-01T01:49:35.752Z,6.30
2018-12-01T01:52:38.415Z,6.30
2018-12-01T01:55:41.086Z,6.30
2018-12-01T01:58:43.762Z,6.30
2018-12-01T02:05:22.344Z,6.40
2018-12-01T02:08:26.300Z,6.40
2018-12-01T02:11:28.965Z,6.40
2018-12-01T02:14:31.690Z,6.40
2018-12-01T02:17:36.233Z,6.40
2018-12-01T02:20:41.045Z,6.40
2018-12-01T02:23:43.724Z,6.40
2018-12-01T02:26:46.362Z,6.50
2018-12-01T02:29:49.046Z,6.50
2018-12-01T02:32:52.288Z,6.50
2018-12-01T02:35:54.968Z,6.60
2018-12-01T02:38:57.647Z,6.60
2018-12-01T02:42:02.809Z,6.60
2018-12-01T02:45:16.815Z,6.70
2018-12-01T02:48:21.993Z,6.70
2018-12-01T02:51:26.000Z,6.70
2018-12-01T02:54:29.837Z,6.70
2018-12-01T02:57:33.550Z,6.70
2018-12-01T03:00:38.455Z,6.70
2018-12-01T03:03:43.219Z,6.70
2018-12-01T03:06:47.914Z,6.70
2018-12-01T03:09:50.475Z,6.80
2018-12-01T03:12:53.567Z,6.70
2018-12-01T03:15:56.174Z,6.70
2018-12-01T03:18:58.938Z,6.70
2018-12-01T03:22:04.489Z,6.80
2018-12-01T03:25:08.588Z,6.70
2018-12-01T03:28:11.211Z,6.70
2018-12-01T03:31:16.114Z,6.80
2018-12-01T03:34:22.044Z,6.80
2018-12-01T03:37:26.785Z,6.80
2018-12-01T03:40:34.073Z,6.80
2018-12-01T03:43:36.845Z,6.80
2018-12-01T03:46:39.533Z,6.80
2018-12-01T03:49:43.101Z,6.90
2018-12-01T03:52:45.749Z,6.80
2018-12-01T03:55:49.425Z,6.80
2018-12-01T03:58:52.148Z,6.90
2018-12-01T04:01:54.799Z,6.90
2018-12-01T04:04:57.454Z,6.90
2018-12-01T04:08:00.226Z,6.90
2018-12-01T04:11:03.153Z,7.00
2018-12-01T04:14:05.914Z,7.00
2018-12-01T04:17:08.562Z,7.00
2018-12-01T04:20:11.277Z,7.00
2018-12-01T04:23:13.870Z,7.00
2018-12-01T04:26:17.099Z,7.00
2018-12-01T04:29:19.786Z,7.10
2018-12-01T04:32:23.433Z,7.10
2018-12-01T04:35:26.393Z,7.10
2018-12-01T04:38:29.046Z,7.20
2018-12-01T04:41:31.718Z,7.20
2018-12-01T04:44:34.385Z,7.20
2018-12-01T04:47:37.070Z,7.20
2018-12-01T04:50:39.829Z,7.20
2018-12-01T04:53:42.532Z,7.20
2018-12-01T04:56:45.195Z,7.20
2018-12-01T04:59:47.928Z,7.20
2018-12-01T05:02:50.570Z,7.20
2018-12-01T05:05:53.217Z,7.20
2018-12-01T05:08:56.112Z,7.20
2018-12-01T05:11:58.853Z,7.30
2018-12-01T05:15:04.425Z,7.30
2018-12-01T05:18:08.840Z,7.30
2018-12-01T05:21:13.388Z,7.30
2018-12-01T05:24:16.079Z,7.30
2018-12-01T05:27:19.371Z,7.30
2018-12-01T05:30:22.065Z,7.30
2018-12-01T05:33:27.725Z,7.30
2018-12-01T05:36:30.333Z,7.30
2018-12-01T05:39:33.200Z,7.30
2018-12-01T05:42:35.933Z,7.30
2018-12-01T05:45:39.505Z,7.30
2018-12-01T05:48:42.182Z,7.30
2018-12-01T05:51:46.355Z,7.20
2018-12-01T05:54:49.589Z,7.30
2018-12-01T05:57:53.134Z,7.20
2018-12-01T06:00:56.223Z,7.20
2018-12-01T06:03:59.124Z,7.20
2018-12-01T06:10:30.642Z,7.20
2018-12-01T06:13:34.056Z,7.20
2018-12-01T06:16:37.315Z,7.20
2018-12-01T06:19:39.952Z,7.20
2018-12-01T06:22:43.215Z,7.30
2018-12-01T06:25:45.882Z,7.30
2018-12-01T06:28:49.283Z,7.30
2018-12-01T06:31:52.028Z,7.30
2018-12-01T06:34:55.408Z,7.30
2018-12-01T06:37:58.010Z,7.30
2018-12-01T06:41:01.678Z,7.30
2018-12-01T06:44:09.526Z,7.40
2018-12-01T06:47:14.179Z,7.40
2018-12-01T06:50:21.296Z,7.40
2018-12-01T06:53:23.944Z,7.40
2018-12-01T06:56:26.495Z,7.40
2018-12-01T06:59:29.166Z,7.40
2018-12-01T07:02:31.753Z,7.40
2018-12-01T07:05:34.497Z,7.40
2018-12-01T07:08:37.174Z,7.40
2018-12-01T07:11:39.963Z,7.40
2018-12-01T07:14:42.559Z,7.40
2018-12-01T07:17:45.270Z,7.50
2018-12-01T07:20:47.959Z,7.50
2018-12-01T07:23:50.589Z,7.50
2018-12-01T07:26:53.180Z,7.50
2018-12-01T07:30:06.840Z,7.50
2018-12-01T07:33:10.636Z,7.50
2018-12-01T07:36:13.424Z,7.50
2018-12-01T07:39:16.150Z,7.50
2018-12-01T07:42:19.109Z,7.50
2018-12-01T07:45:21.759Z,7.50
2018-12-01T07:48:24.940Z,7.50
2018-12-01T07:51:27.628Z,7.40
2018-12-01T07:54:30.241Z,7.40
2018-12-01T07:57:34.015Z,7.40
2018-12-01T08:00:37.858Z,7.40
2018-12-01T08:03:41.795Z,7.40
2018-12-01T08:06:45.610Z,7.30
2018-12-01T08:09:49.485Z,7.40
2018-12-01T08:12:53.222Z,7.40
2018-12-01T08:15:56.589Z,7.30
2018-12-01T08:19:00.459Z,7.30
